Time;durP1;ratioP1;P1;durP2;ratioP2;P2;SDS_P1;SDS_P2;PMS_P1;PMS_P2;Temp;Humidity;BMP_temperature;BMP_pressure;BME280_temperature;BME280_humidity;BME280_pressure;Samples;Min_cycle;Max_cycle;Signal;HPM_P1;HPM_P2
2023/01/25 00:01:12;;;;;;;;;;;3.40;79.60;;;;;;5094526;28;19919;-36
2023/01/25 00:03:38;;;;;;;;;;;3.40;79.60;;;;;;5094383;28;20255;-36
2023/01/25 00:06:03;;;;;;;;;;;3.40;79.60;;;;;;5094473;28;19945;-37
2023/01/25 00:08:29;;;;;;;;;;;3.40;79.60;;;;;;5094330;28;19908;-36
2023/01/25 00:10:54;;;;;;;;;;;3.30;79.70;;;;;;5094546;28;19908;-36
2023/01/25 00:13:20;;;;;;;;;;;3.40;79.80;;;;;;5094442;28;20007;-36
2023/01/25 00:15:45;;;;;;;;;;;3.40;79.70;;;;;;5093865;28;19920;-36
2023/01/25 00:18:11;;;;;;;;;;;3.40;79.70;;;;;;5094064;28;19931;-36
2023/01/25 00:20:36;;;;;;;;;;;3.40;79.60;;;;;;5094120;28;19977;-35
2023/01/25 00:23:02;;;;;;;;;;;3.40;79.50;;;;;;5094043;28;19908;-37
2023/01/25 00:25:27;;;;;;;;;;;3.40;79.40;;;;;;5094256;28;19909;-35
2023/01/25 00:27:53;;;;;;;;;;;3.40;79.60;;;;;;5094385;28;20364;-39
2023/01/25 00:30:18;;;;;;;;;;;3.40;79.60;;;;;;5094230;28;19961;-37
2023/01/25 00:32:51;;;;;;;;;;;3.40;79.50;;;;;;5093997;28;20363;-36
2023/01/25 00:35:17;;;;;;;;;;;3.50;79.50;;;;;;5094236;28;20033;-36
2023/01/25 00:37:45;;;;;;;;;;;3.50;79.50;;;;;;5094158;28;19908;-37
2023/01/25 00:40:11;;;;;;;;;;;3.50;79.50;;;;;;5093629;28;19912;-36
2023/01/25 00:42:37;;;;;;;;;;;3.50;79.40;;;;;;5093996;28;20236;-36
2023/01/25 00:45:03;;;;;;;;;;;3.50;79.40;;;;;;5093708;28;19988;-38
2023/01/25 00:47:28;;;;;;;;;;;3.50;79.40;;;;;;5093933;28;20021;-36
2023/01/25 00:49:54;;;;;;;;;;;3.50;79.40;;;;;;5093408;28;19912;-37
2023/01/25 00:52:21;;;;;;;;;;;3.50;79.40;;;;;;5093437;28;19908;-37
2023/01/25 00:54:46;;;;;;;;;;;3.50;79.40;;;;;;5093476;28;19912;-37
2023/01/25 00:57:12;;;;;;;;;;;3.50;79.40;;;;;;5093356;28;19960;-37
2023/01/25 00:59:37;;;;;;;;;;;3.50;79.40;;;;;;5093344;28;19919;-37
2023/01/25 01:02:03;;;;;;;;;;;3.50;79.40;;;;;;5093632;28;20083;-37
2023/01/25 01:04:29;;;;;;;;;;;3.50;79.50;;;;;;5093496;28;19973;-50
2023/01/25 01:06:54;;;;;;;;;;;3.50;79.40;;;;;;5093625;28;20248;-40
2023/01/25 01:09:20;;;;;;;;;;;3.60;79.40;;;;;;5093077;28;19908;-36
2023/01/25 01:11:46;;;;;;;;;;;3.50;79.40;;;;;;5093158;28;19916;-37
2023/01/25 01:14:11;;;;;;;;;;;3.60;79.40;;;;;;5093386;28;19908;-37
2023/01/25 01:16:37;;;;;;;;;;;3.50;79.30;;;;;;5093051;28;20022;-36
2023/01/25 01:19:02;;;;;;;;;;;3.50;79.40;;;;;;5093011;28;19916;-38
2023/01/25 01:21:28;;;;;;;;;;;3.50;79.40;;;;;;5092914;28;19914;-37
2023/01/25 01:23:53;;;;;;;;;;;3.50;79.40;;;;;;5092885;28;19915;-39
2023/01/25 01:26:19;;;;;;;;;;;3.50;79.30;;;;;;5092919;28;20004;-36
2023/01/25 01:28:45;;;;;;;;;;;3.50;79.30;;;;;;5093490;28;20324;-38
2023/01/25 01:31:14;;;;;;;;;;;3.60;79.40;;;;;;5092888;28;19908;-36
2023/01/25 01:33:40;;;;;;;;;;;3.60;79.30;;;;;;5092814;28;19908;-38
2023/01/25 01:36:06;;;;;;;;;;;3.60;79.30;;;;;;5092709;28;19976;-38
2023/01/25 01:38:32;;;;;;;;;;;3.60;79.40;;;;;;5092764;28;19919;-37
2023/01/25 01:40:57;;;;;;;;;;;3.60;79.30;;;;;;5092509;28;20375;-40
2023/01/25 01:43:23;;;;;;;;;;;3.60;79.20;;;;;;5092476;28;19930;-43
2023/01/25 01:45:54;;;;;;;;;;;3.60;79.30;;;;;;5092698;28;19977;-38
2023/01/25 01:48:38;;;;;;;;;;;3.60;79.30;;;;;;5091128;28;19908;-38
2023/01/25 01:51:24;;;;;;;;;;;3.60;79.20;;;;;;5092736;28;19998;-38
2023/01/25 01:53:52;;;;;;;;;;;3.60;79.20;;;;;;5081342;28;19969;-40
2023/01/25 01:56:21;;;;;;;;;;;3.60;79.20;;;;;;5092449;28;19912;-39
2023/01/25 01:58:47;;;;;;;;;;;3.60;79.20;;;;;;5092172;28;20009;-37
2023/01/25 02:01:12;;;;;;;;;;;3.60;79.20;;;;;;5092166;28;19947;-40
2023/01/25 02:03:39;;;;;;;;;;;3.60;79.10;;;;;;5091539;28;19908;-36
2023/01/25 02:06:07;;;;;;;;;;;3.60;79.20;;;;;;5090799;28;19908;-39
2023/01/25 02:08:35;;;;;;;;;;;3.60;79.20;;;;;;5091993;28;19908;-36
2023/01/25 02:11:02;;;;;;;;;;;3.50;79.20;;;;;;5092192;28;20279;-36
2023/01/25 02:13:27;;;;;;;;;;;3.50;79.20;;;;;;5092273;28;19995;-36
2023/01/25 02:15:55;;;;;;;;;;;3.50;79.20;;;;;;5091990;28;20011;-37
2023/01/25 02:18:21;;;;;;;;;;;3.40;79.20;;;;;;5091881;28;19920;-39
2023/01/25 02:20:51;;;;;;;;;;;3.40;79.20;;;;;;5091876;28;19912;-37
2023/01/25 02:23:42;;;;;;;;;;;3.40;79.20;;;;;;5092258;28;19912;-40
2023/01/25 02:26:08;;;;;;;;;;;3.40;79.40;;;;;;5091865;28;19939;-36
2023/01/25 02:28:51;;;;;;;;;;;3.30;79.30;;;;;;5091921;28;19915;-37
2023/01/25 02:31:16;;;;;;;;;;;3.30;79.40;;;;;;5092030;28;20044;-35
2023/01/25 02:33:42;;;;;;;;;;;3.20;79.40;;;;;;5091866;28;19920;-37
2023/01/25 02:36:07;;;;;;;;;;;3.20;79.50;;;;;;5091794;28;19912;-37
2023/01/25 02:38:41;;;;;;;;;;;3.20;79.40;;;;;;5091816;28;20037;-37
2023/01/25 02:41:16;;;;;;;;;;;3.20;79.40;;;;;;5092084;28;19938;-35
2023/01/25 02:43:41;;;;;;;;;;;3.20;79.50;;;;;;5091719;28;20022;-35
2023/01/25 02:46:16;;;;;;;;;;;3.20;79.40;;;;;;5091642;28;19908;-36
2023/01/25 02:48:42;;;;;;;;;;;3.20;79.50;;;;;;5091646;28;20045;-35
2023/01/25 02:51:08;;;;;;;;;;;3.20;79.40;;;;;;5091846;28;19939;-46
2023/01/25 02:53:33;;;;;;;;;;;3.30;79.40;;;;;;5091424;28;20020;-37
2023/01/25 02:55:59;;;;;;;;;;;3.30;79.30;;;;;;5091320;28;19916;-36
2023/01/25 02:58:24;;;;;;;;;;;3.30;79.20;;;;;;5091526;28;19935;-38
2023/01/25 03:00:50;;;;;;;;;;;3.30;79.20;;;;;;5091237;28;19915;-36
2023/01/25 03:03:15;;;;;;;;;;;3.40;79.20;;;;;;5091280;28;19970;-38
2023/01/25 03:05:41;;;;;;;;;;;3.40;79.20;;;;;;5091096;28;19908;-37
2023/01/25 03:08:06;;;;;;;;;;;3.40;79.20;;;;;;5091542;28;20354;-39
2023/01/25 03:10:32;;;;;;;;;;;3.30;79.20;;;;;;5091400;28;19998;-36
2023/01/25 03:12:57;;;;;;;;;;;3.40;79.20;;;;;;5091534;28;19912;-37
2023/01/25 03:15:23;;;;;;;;;;;3.40;79.20;;;;;;5094531;28;20319;-35
2023/01/25 03:17:48;;;;;;;;;;;3.40;79.10;;;;;;5095464;28;19908;-37
2023/01/25 03:20:14;;;;;;;;;;;3.40;79.80;;;;;;5095064;28;20344;-39
2023/01/25 03:22:39;;;;;;;;;;;3.40;79.10;;;;;;5095402;28;19908;-37
2023/01/25 03:25:05;;;;;;;;;;;3.40;79.10;;;;;;5095300;28;19951;-40
2023/01/25 03:27:30;;;;;;;;;;;3.40;79.10;;;;;;5095366;28;20228;-40
2023/01/25 03:29:56;;;;;;;;;;;3.40;79.10;;;;;;5095119;28;19934;-38
2023/01/25 03:32:21;;;;;;;;;;;3.30;79.00;;;;;;5095061;28;19915;-37
2023/01/25 03:34:47;;;;;;;;;;;3.40;79.10;;;;;;5094894;28;19908;-35
2023/01/25 03:37:13;;;;;;;;;;;3.40;79.00;;;;;;5094817;28;19908;-38
2023/01/25 03:39:38;;;;;;;;;;;3.40;79.10;;;;;;5094629;28;19951;-37
2023/01/25 03:42:04;;;;;;;;;;;3.30;79.00;;;;;;5094698;28;20424;-37
2023/01/25 03:44:29;;;;;;;;;;;3.30;79.10;;;;;;5094644;28;20017;-37
2023/01/25 03:46:55;;;;;;;;;;;3.30;79.10;;;;;;5094804;28;19930;-38
2023/01/25 03:49:20;;;;;;;;;;;3.30;79.10;;;;;;5094464;28;19943;-38
2023/01/25 03:51:45;;;;;;;;;;;3.30;79.10;;;;;;5094756;28;20363;-40
2023/01/25 03:54:11;;;;;;;;;;;3.30;79.10;;;;;;5094313;28;19908;-37
2023/01/25 03:56:37;;;;;;;;;;;3.30;79.10;;;;;;5094477;28;19999;-47
2023/01/25 03:59:02;;;;;;;;;;;3.30;79.10;;;;;;5094316;28;19972;-42
2023/01/25 04:01:28;;;;;;;;;;;3.30;79.00;;;;;;5094591;28;19980;-46
2023/01/25 04:03:54;;;;;;;;;;;3.30;79.00;;;;;;5094236;28;19916;-40
2023/01/25 04:06:19;;;;;;;;;;;3.30;79.10;;;;;;5094482;28;19908;-37
2023/01/25 04:08:45;;;;;;;;;;;3.30;79.00;;;;;;5094528;28;19912;-39
2023/01/25 04:11:10;;;;;;;;;;;3.30;79.00;;;;;;5093944;28;19952;-36
2023/01/25 04:13:36;;;;;;;;;;;3.20;79.60;;;;;;5094355;28;20006;-38
2023/01/25 04:16:02;;;;;;;;;;;3.20;79.00;;;;;;5092626;28;19916;-37
2023/01/25 04:18:27;;;;;;;;;;;3.20;79.00;;;;;;5094085;28;19916;-37
2023/01/25 04:20:53;;;;;;;;;;;3.20;79.00;;;;;;5094376;28;19999;-39
2023/01/25 04:23:19;;;;;;;;;;;3.20;79.10;;;;;;5094037;28;19980;-38
2023/01/25 04:25:51;;;;;;;;;;;3.20;78.90;;;;;;5093028;28;20227;-38
2023/01/25 04:28:17;;;;;;;;;;;3.10;78.70;;;;;;5093834;28;19957;-38
2023/01/25 04:30:42;;;;;;;;;;;3.00;78.70;;;;;;5093766;28;19908;-37
2023/01/25 04:33:08;;;;;;;;;;;3.00;78.80;;;;;;5093700;28;20007;-37
2023/01/25 04:35:33;;;;;;;;;;;2.90;79.00;;;;;;5093683;28;19908;-37
2023/01/25 04:37:59;;;;;;;;;;;3.00;79.00;;;;;;5093608;28;19961;-37
2023/01/25 04:40:25;;;;;;;;;;;3.00;79.00;;;;;;5093429;28;19912;-38
2023/01/25 04:42:50;;;;;;;;;;;3.00;78.90;;;;;;5093412;28;20276;-35
2023/01/25 04:45:15;;;;;;;;;;;3.00;79.00;;;;;;5093405;28;20003;-37
2023/01/25 04:47:41;;;;;;;;;;;3.00;78.90;;;;;;5092107;28;20339;-36
2023/01/25 04:50:07;;;;;;;;;;;2.90;78.80;;;;;;5093403;28;19922;-38
2023/01/25 04:52:32;;;;;;;;;;;2.90;78.80;;;;;;5093523;28;19908;-35
2023/01/25 04:54:58;;;;;;;;;;;2.90;79.00;;;;;;5093242;28;19908;-36
2023/01/25 04:57:23;;;;;;;;;;;2.90;79.00;;;;;;5093452;28;19908;-36
2023/01/25 04:59:49;;;;;;;;;;;2.90;79.00;;;;;;5093519;28;20015;-36
2023/01/25 05:02:14;;;;;;;;;;;2.90;78.90;;;;;;5093731;28;19934;-37
2023/01/25 05:04:39;;;;;;;;;;;3.00;79.00;;;;;;5093355;28;20507;-36
2023/01/25 05:07:05;;;;;;;;;;;3.00;78.90;;;;;;5093337;28;19959;-38
2023/01/25 05:09:30;;;;;;;;;;;3.00;78.90;;;;;;5093288;28;20390;-38
2023/01/25 05:11:56;;;;;;;;;;;3.00;78.90;;;;;;5093305;28;19912;-37
2023/01/25 05:14:21;;;;;;;;;;;3.00;78.80;;;;;;5093194;28;19909;-36
2023/01/25 05:16:47;;;;;;;;;;;3.00;78.80;;;;;;5092935;28;19916;-36
2023/01/25 05:19:12;;;;;;;;;;;3.00;78.90;;;;;;5093080;28;20268;-38
2023/01/25 05:24:22;;;;;;;;;;;3.10;78.80;;;;;;5093040;28;20019;-36
2023/01/25 05:27:00;;;;;;;;;;;3.00;78.80;;;;;;5093012;28;20367;-37
2023/01/25 05:29:29;;;;;;;;;;;3.00;78.70;;;;;;5092909;28;19909;-37
2023/01/25 05:31:54;;;;;;;;;;;3.10;78.90;;;;;;5091508;28;19953;-37
2023/01/25 05:34:20;;;;;;;;;;;3.00;78.70;;;;;;5092802;28;19908;-36
2023/01/25 05:36:45;;;;;;;;;;;3.00;78.50;;;;;;5092677;28;19915;-37
2023/01/25 05:39:11;;;;;;;;;;;2.90;78.30;;;;;;5092510;28;19920;-35
2023/01/25 05:41:36;;;;;;;;;;;2.80;78.60;;;;;;5092752;28;19934;-37
2023/01/25 05:44:01;;;;;;;;;;;2.70;78.70;;;;;;5092496;28;19994;-35
2023/01/25 05:46:27;;;;;;;;;;;2.70;78.80;;;;;;5092829;28;19908;-37
2023/01/25 05:48:53;;;;;;;;;;;2.70;78.80;;;;;;5092398;28;19923;-35
2023/01/25 05:51:18;;;;;;;;;;;2.70;78.90;;;;;;5092387;28;19915;-37
2023/01/25 05:53:44;;;;;;;;;;;2.70;78.90;;;;;;5092507;28;19939;-39
2023/01/25 05:56:09;;;;;;;;;;;2.70;78.90;;;;;;5092495;28;19908;-39
2023/01/25 05:58:35;;;;;;;;;;;2.70;78.80;;;;;;5092272;28;19912;-39
2023/01/25 06:01:01;;;;;;;;;;;2.70;78.80;;;;;;5092514;28;19953;-39
2023/01/25 06:03:27;;;;;;;;;;;2.80;78.90;;;;;;5092241;28;19908;-38
2023/01/25 06:05:56;;;;;;;;;;;2.80;78.80;;;;;;5092237;28;20426;-36
2023/01/25 06:08:22;;;;;;;;;;;2.90;78.80;;;;;;5092352;28;20357;-44
2023/01/25 06:10:48;;;;;;;;;;;2.90;78.80;;;;;;5092159;28;20342;-35
2023/01/25 06:13:13;;;;;;;;;;;2.90;78.80;;;;;;5092468;28;19908;-37
2023/01/25 06:15:39;;;;;;;;;;;2.80;78.80;;;;;;5092046;28;19919;-36
2023/01/25 06:18:04;;;;;;;;;;;2.90;79.00;;;;;;5092079;28;19908;-38
2023/01/25 06:20:30;;;;;;;;;;;2.90;78.90;;;;;;5090598;28;19999;-35
2023/01/25 06:22:55;;;;;;;;;;;2.90;78.90;;;;;;5092026;28;19916;-47
2023/01/25 06:25:21;;;;;;;;;;;2.90;78.80;;;;;;5092058;28;20332;-37
2023/01/25 06:27:46;;;;;;;;;;;3.00;78.90;;;;;;5091807;28;19916;-38
2023/01/25 06:30:12;;;;;;;;;;;3.00;78.80;;;;;;5091893;28;19908;-37
2023/01/25 06:32:37;;;;;;;;;;;3.00;78.70;;;;;;5091890;28;19908;-43
2023/01/25 06:35:03;;;;;;;;;;;3.00;78.80;;;;;;5091880;28;20354;-52
2023/01/25 06:37:29;;;;;;;;;;;3.00;78.80;;;;;;5092150;28;19914;-40
2023/01/25 06:39:54;;;;;;;;;;;3.00;78.80;;;;;;5091682;28;20359;-39
2023/01/25 06:42:22;;;;;;;;;;;3.00;78.80;;;;;;5091825;28;19908;-37
2023/01/25 06:44:47;;;;;;;;;;;3.00;78.80;;;;;;5090488;28;20007;-39
2023/01/25 06:47:13;;;;;;;;;;;3.00;78.80;;;;;;5091715;28;19908;-36
2023/01/25 06:49:38;;;;;;;;;;;3.00;78.80;;;;;;5094254;28;19974;-37
2023/01/25 06:52:04;;;;;;;;;;;3.00;78.80;;;;;;5095954;28;19931;-37
2023/01/25 06:54:29;;;;;;;;;;;3.00;78.80;;;;;;5095822;28;19997;-37
2023/01/25 06:56:55;;;;;;;;;;;3.10;78.90;;;;;;5096145;28;19908;-38
2023/01/25 06:59:20;;;;;;;;;;;3.10;78.90;;;;;;5095870;28;19918;-36
2023/01/25 07:01:46;;;;;;;;;;;3.00;78.80;;;;;;5095984;28;20363;-37
2023/01/25 07:04:11;;;;;;;;;;;3.00;78.80;;;;;;5095780;28;19908;-36
2023/01/25 07:06:37;;;;;;;;;;;3.00;78.90;;;;;;5096215;28;19946;-38
2023/01/25 07:09:04;;;;;;;;;;;3.00;79.00;;;;;;5095634;28;19908;-37
2023/01/25 07:11:29;;;;;;;;;;;3.00;79.00;;;;;;5095737;28;20318;-38
2023/01/25 07:13:55;;;;;;;;;;;3.00;79.00;;;;;;5094696;28;19928;-39
2023/01/25 07:16:20;;;;;;;;;;;3.00;79.00;;;;;;5095559;28;19947;-37
2023/01/25 07:18:46;;;;;;;;;;;3.00;79.00;;;;;;5095613;28;20398;-39
2023/01/25 07:21:13;;;;;;;;;;;3.00;79.00;;;;;;5095406;28;20423;-35
2023/01/25 07:23:40;;;;;;;;;;;3.00;79.00;;;;;;5095777;28;19930;-41
2023/01/25 07:26:10;;;;;;;;;;;3.00;79.00;;;;;;5095391;28;19908;-38
2023/01/25 07:28:35;;;;;;;;;;;3.00;79.00;;;;;;5095294;28;19908;-38
2023/01/25 07:31:05;;;;;;;;;;;3.00;79.00;;;;;;5095244;28;19908;-37
2023/01/25 07:33:30;;;;;;;;;;;3.00;78.90;;;;;;5095552;28;20395;-36
2023/01/25 07:36:00;;;;;;;;;;;3.00;78.90;;;;;;5094935;28;19912;-37
2023/01/25 07:38:25;;;;;;;;;;;2.90;78.90;;;;;;5095153;28;19915;-37
2023/01/25 07:40:52;;;;;;;;;;;2.90;79.00;;;;;;5094847;28;19908;-45
2023/01/25 07:43:18;;;;;;;;;;;2.90;79.00;;;;;;5095090;28;19908;-37
2023/01/25 07:45:47;;;;;;;;;;;2.90;79.10;;;;;;5094775;28;19908;-36
2023/01/25 07:48:13;;;;;;;;;;;2.90;79.00;;;;;;5095020;28;19908;-36
2023/01/25 07:50:40;;;;;;;;;;;2.90;79.00;;;;;;5095138;28;19977;-37
2023/01/25 07:53:06;;;;;;;;;;;2.90;78.80;;;;;;5095025;28;19954;-42
2023/01/25 07:55:31;;;;;;;;;;;2.80;79.40;;;;;;5095154;28;20389;-38
2023/01/25 07:57:57;;;;;;;;;;;2.70;78.80;;;;;;5094773;28;19908;-39
2023/01/25 08:00:23;;;;;;;;;;;2.60;78.80;;;;;;5093199;28;19935;-36
2023/01/25 08:02:49;;;;;;;;;;;2.60;78.90;;;;;;5094902;28;19978;-37
2023/01/25 08:05:14;;;;;;;;;;;2.50;78.90;;;;;;5094342;28;19970;-37
2023/01/25 08:07:40;;;;;;;;;;;2.50;79.00;;;;;;5094547;28;19919;-37
2023/01/25 08:10:06;;;;;;;;;;;2.50;79.00;;;;;;5094451;28;19923;-38
2023/01/25 08:12:33;;;;;;;;;;;2.50;79.10;;;;;;5094515;28;20361;-38
2023/01/25 08:14:59;;;;;;;;;;;2.50;79.10;;;;;;5094693;28;19909;-38
2023/01/25 08:17:30;;;;;;;;;;;2.50;79.10;;;;;;5094435;28;20014;-36
2023/01/25 08:19:59;;;;;;;;;;;2.50;79.00;;;;;;5094553;28;19916;-37
2023/01/25 08:22:25;;;;;;;;;;;2.50;79.10;;;;;;5094564;28;19908;-36
2023/01/25 08:24:51;;;;;;;;;;;2.60;79.10;;;;;;5092888;28;19940;-36
2023/01/25 08:27:16;;;;;;;;;;;2.60;79.00;;;;;;5094445;28;20374;-37
2023/01/25 08:29:42;;;;;;;;;;;2.70;79.00;;;;;;5094031;28;19908;-35
2023/01/25 08:32:07;;;;;;;;;;;2.70;78.90;;;;;;5094067;28;19909;-37
2023/01/25 08:34:33;;;;;;;;;;;2.60;78.70;;;;;;5094107;28;19915;-41
2023/01/25 08:36:59;;;;;;;;;;;2.60;78.80;;;;;;5094298;28;19998;-42
2023/01/25 08:39:24;;;;;;;;;;;2.40;78.80;;;;;;5093760;28;20248;-37
2023/01/25 08:41:50;;;;;;;;;;;2.40;79.00;;;;;;5092484;28;19908;-36
2023/01/25 08:44:15;;;;;;;;;;;2.40;79.10;;;;;;5092490;28;19915;-38
2023/01/25 08:46:41;;;;;;;;;;;2.40;79.20;;;;;;5093800;28;19908;-36
2023/01/25 08:49:08;;;;;;;;;;;2.40;79.20;;;;;;5093939;28;20060;-37
2023/01/25 08:51:33;;;;;;;;;;;2.40;79.20;;;;;;5094070;28;19908;-36
2023/01/25 08:54:03;;;;;;;;;;;2.50;79.20;;;;;;5093817;28;19916;-37
2023/01/25 08:56:28;;;;;;;;;;;2.50;79.20;;;;;;5093772;28;19973;-38
2023/01/25 08:58:54;;;;;;;;;;;2.50;79.10;;;;;;5093396;28;19912;-43
2023/01/25 09:01:19;;;;;;;;;;;2.50;79.10;;;;;;5093581;28;19908;-37
2023/01/25 09:03:46;;;;;;;;;;;2.60;79.10;;;;;;5093144;28;19985;-38
2023/01/25 09:06:12;;;;;;;;;;;2.70;79.10;;;;;;5093339;28;19915;-38
2023/01/25 09:08:38;;;;;;;;;;;2.70;79.60;;;;;;5093507;28;19909;-36
2023/01/25 09:11:04;;;;;;;;;;;2.70;78.90;;;;;;5093030;28;19915;-38
2023/01/25 09:13:30;;;;;;;;;;;2.70;78.90;;;;;;5093013;28;20425;-39
2023/01/25 09:16:02;;;;;;;;;;;2.70;79.00;;;;;;5093032;28;19924;-43
2023/01/25 09:18:29;;;;;;;;;;;2.70;79.00;;;;;;5093582;28;20313;-38
2023/01/25 09:20:54;;;;;;;;;;;2.80;79.00;;;;;;5093151;28;19915;-36
2023/01/25 09:23:22;;;;;;;;;;;2.70;78.80;;;;;;5093102;28;19908;-38
2023/01/25 09:25:48;;;;;;;;;;;2.60;78.60;;;;;;5092851;28;19965;-36
2023/01/25 09:28:14;;;;;;;;;;;2.60;78.80;;;;;;5093162;28;19918;-36
2023/01/25 09:30:41;;;;;;;;;;;2.50;79.00;;;;;;5091944;28;19995;-36
2023/01/25 09:33:06;;;;;;;;;;;2.50;79.10;;;;;;5093204;28;19954;-36
2023/01/25 09:35:34;;;;;;;;;;;2.60;79.00;;;;;;5092905;28;20336;-36
2023/01/25 09:38:00;;;;;;;;;;;2.60;79.00;;;;;;5092859;28;19961;-37
2023/01/25 09:40:29;;;;;;;;;;;2.60;79.00;;;;;;5092912;28;19919;-38
2023/01/25 09:43:13;;;;;;;;;;;2.70;79.00;;;;;;5092981;28;19908;-37
2023/01/25 09:45:39;;;;;;;;;;;2.70;78.90;;;;;;5093048;28;20386;-38
2023/01/25 09:48:23;;;;;;;;;;;2.70;78.90;;;;;;5092480;28;19912;-39
2023/01/25 09:51:03;;;;;;;;;;;2.70;78.90;;;;;;5092804;28;19908;-37
2023/01/25 09:53:32;;;;;;;;;;;2.60;78.80;;;;;;5092593;28;19908;-39
2023/01/25 09:56:15;;;;;;;;;;;2.60;78.90;;;;;;5092816;28;19931;-37
2023/01/25 09:58:45;;;;;;;;;;;2.60;78.90;;;;;;5092790;28;19912;-42
2023/01/25 10:01:24;;;;;;;;;;;2.70;79.00;;;;;;5091289;28;20395;-37
2023/01/25 10:03:59;;;;;;;;;;;2.70;79.00;;;;;;5092449;28;19936;-39
2023/01/25 10:06:30;;;;;;;;;;;2.70;79.00;;;;;;5092398;28;19912;-41
2023/01/25 10:09:12;;;;;;;;;;;2.80;79.00;;;;;;5092346;28;19908;-37
2023/01/25 10:11:38;;;;;;;;;;;2.80;79.00;;;;;;5092832;28;20363;-39
2023/01/25 10:14:11;;;;;;;;;;;2.90;78.90;;;;;;5092608;28;20007;-37
2023/01/25 10:16:36;;;;;;;;;;;2.90;78.80;;;;;;5092168;28;19994;-37
2023/01/25 10:19:09;;;;;;;;;;;2.90;78.80;;;;;;5092439;28;20073;-37
2023/01/25 10:21:53;;;;;;;;;;;3.00;78.80;;;;;;5092188;28;19916;-37
2023/01/25 10:24:18;;;;;;;;;;;3.00;78.80;;;;;;5091222;28;20291;-37
2023/01/25 10:26:46;;;;;;;;;;;3.00;78.70;;;;;;5092050;28;19909;-38
2023/01/25 10:29:19;;;;;;;;;;;3.00;78.80;;;;;;5092174;28;19959;-37
2023/01/25 10:31:45;;;;;;;;;;;3.00;78.80;;;;;;5092057;28;19959;-37
2023/01/25 10:34:14;;;;;;;;;;;3.00;78.80;;;;;;5092085;28;20429;-37
2023/01/25 10:36:39;;;;;;;;;;;3.00;78.80;;;;;;5092153;28;19908;-39
2023/01/25 10:39:06;;;;;;;;;;;3.00;78.70;;;;;;5091749;28;19934;-36
2023/01/25 10:41:37;;;;;;;;;;;3.10;78.80;;;;;;5092200;28;20292;-43
2023/01/25 10:44:21;;;;;;;;;;;3.10;78.80;;;;;;5090614;28;20459;-37
2023/01/25 10:46:55;;;;;;;;;;;3.10;78.70;;;;;;5091769;28;19938;-37
2023/01/25 10:49:27;;;;;;;;;;;3.10;78.60;;;;;;5092000;28;20232;-42
2023/01/25 10:51:52;;;;;;;;;;;3.10;78.70;;;;;;5091660;28;20003;-40
2023/01/25 10:54:20;;;;;;;;;;;3.10;78.70;;;;;;5091600;28;19970;-37
2023/01/25 10:56:46;;;;;;;;;;;3.10;78.60;;;;;;5091575;28;19916;-37
2023/01/25 10:59:23;;;;;;;;;;;3.10;78.60;;;;;;5091446;28;20299;-35
2023/01/25 11:01:48;;;;;;;;;;;3.10;78.60;;;;;;5091553;28;19916;-37
2023/01/25 11:04:34;;;;;;;;;;;3.10;78.50;;;;;;5091636;28;19908;-37
2023/01/25 11:07:01;;;;;;;;;;;3.10;78.40;;;;;;5091038;28;20002;-38
2023/01/25 11:09:29;;;;;;;;;;;3.10;78.60;;;;;;5091869;28;20418;-37
2023/01/25 11:12:10;;;;;;;;;;;3.10;78.70;;;;;;5091523;28;20339;-36
2023/01/25 11:14:35;;;;;;;;;;;3.10;78.60;;;;;;5091641;28;20003;-37
2023/01/25 11:17:03;;;;;;;;;;;3.20;78.60;;;;;;5091120;28;19959;-36
2023/01/25 11:19:38;;;;;;;;;;;3.10;78.50;;;;;;5091339;28;19920;-37
2023/01/25 11:22:18;;;;;;;;;;;3.20;78.50;;;;;;5091374;28;20354;-35
2023/01/25 11:24:44;;;;;;;;;;;3.10;78.40;;;;;;5091526;28;20402;-36
2023/01/25 11:27:12;;;;;;;;;;;3.10;78.50;;;;;;5091326;28;19962;-37
2023/01/25 11:29:37;;;;;;;;;;;3.10;78.50;;;;;;5091527;28;19918;-36
2023/01/25 11:32:13;;;;;;;;;;;3.10;78.50;;;;;;5091398;28;20307;-35
2023/01/25 11:34:39;;;;;;;;;;;3.10;78.60;;;;;;5092051;28;19916;-36
2023/01/25 11:37:21;;;;;;;;;;;3.10;78.60;;;;;;5095257;28;20291;-36
2023/01/25 11:39:52;;;;;;;;;;;3.20;78.50;;;;;;5095072;28;19920;-36
2023/01/25 11:42:18;;;;;;;;;;;3.20;78.50;;;;;;5095370;28;19935;-36
2023/01/25 11:44:46;;;;;;;;;;;3.20;78.20;;;;;;5095060;28;19912;-39
2023/01/25 11:47:32;;;;;;;;;;;3.10;78.00;;;;;;5095195;28;19912;-36
2023/01/25 11:49:58;;;;;;;;;;;3.10;78.20;;;;;;5083986;28;19912;-40
2023/01/25 11:52:28;;;;;;;;;;;3.00;78.30;;;;;;5094945;28;20287;-34
2023/01/25 11:54:56;;;;;;;;;;;3.10;78.40;;;;;;5095030;28;20007;-40
2023/01/25 11:57:40;;;;;;;;;;;3.10;78.40;;;;;;5095118;28;19959;-33
2023/01/25 12:00:15;;;;;;;;;;;3.10;78.40;;;;;;5094626;28;19988;-43
2023/01/25 12:02:55;;;;;;;;;;;3.20;78.50;;;;;;5094923;28;19913;-35
2023/01/25 12:05:21;;;;;;;;;;;3.20;78.30;;;;;;5094688;28;19913;-45
2023/01/25 12:08:05;;;;;;;;;;;3.10;78.10;;;;;;5094424;28;19916;-36
2023/01/25 12:10:39;;;;;;;;;;;3.10;78.10;;;;;;5094490;28;19961;-51
2023/01/25 12:13:16;;;;;;;;;;;3.00;78.00;;;;;;5094490;28;20006;-35
2023/01/25 12:16:01;;;;;;;;;;;3.00;78.30;;;;;;5094671;28;20287;-41
2023/01/25 12:18:59;;;;;;;;;;;3.00;78.40;;;;;;5094230;28;19916;-48
2023/01/25 12:21:30;;;;;;;;;;;3.10;78.40;;;;;;5059776;28;19912;-37
2023/01/25 12:24:19;;;;;;;;;;;3.20;78.30;;;;;;5094394;28;20271;-36
2023/01/25 12:27:03;;;;;;;;;;;3.20;78.30;;;;;;5092610;28;20019;-37
2023/01/25 12:29:36;;;;;;;;;;;3.30;78.30;;;;;;5094194;28;19912;-36
2023/01/25 12:32:02;;;;;;;;;;;3.30;78.20;;;;;;5094088;28;20397;-37
2023/01/25 12:34:34;;;;;;;;;;;3.30;78.20;;;;;;5094047;28;19919;-37
2023/01/25 12:37:05;;;;;;;;;;;3.20;78.20;;;;;;5093896;28;19912;-38
2023/01/25 12:39:34;;;;;;;;;;;3.20;78.30;;;;;;5093566;28;19966;-37
2023/01/25 12:42:03;;;;;;;;;;;3.20;78.30;;;;;;5093814;28;19919;-38
2023/01/25 12:44:35;;;;;;;;;;;3.20;78.30;;;;;;5094015;28;19912;-39
2023/01/25 12:47:03;;;;;;;;;;;3.30;79.00;;;;;;5093148;28;20371;-37
2023/01/25 12:49:32;;;;;;;;;;;3.30;78.30;;;;;;5093584;28;20021;-39
2023/01/25 12:51:59;;;;;;;;;;;3.30;78.40;;;;;;5093387;28;19912;-37
2023/01/25 12:54:33;;;;;;;;;;;3.30;78.30;;;;;;5093851;28;19912;-39
2023/01/25 12:57:09;;;;;;;;;;;3.30;78.40;;;;;;5093774;28;19916;-38
2023/01/25 12:59:52;;;;;;;;;;;3.20;78.30;;;;;;5093225;28;19920;-36
2023/01/25 13:02:35;;;;;;;;;;;3.20;78.20;;;;;;5093499;28;19912;-37
2023/01/25 13:05:12;;;;;;;;;;;3.20;78.30;;;;;;5093640;28;20016;-36
2023/01/25 13:07:53;;;;;;;;;;;3.20;78.40;;;;;;5093902;28;19919;-40
2023/01/25 13:10:22;;;;;;;;;;;3.20;78.30;;;;;;5093269;28;19912;-38
2023/01/25 13:12:51;;;;;;;;;;;3.10;78.30;;;;;;5093297;28;19970;-37
2023/01/25 13:15:36;;;;;;;;;;;3.10;78.40;;;;;;5093067;28;20371;-36
2023/01/25 13:18:22;;;;;;;;;;;3.10;78.40;;;;;;5092657;28;20053;-35
2023/01/25 13:20:48;;;;;;;;;;;3.10;78.40;;;;;;5092906;28;19920;-39
2023/01/25 13:23:32;;;;;;;;;;;3.10;78.30;;;;;;5093042;28;19912;-37
2023/01/25 13:26:16;;;;;;;;;;;3.10;78.40;;;;;;5093382;28;19912;-46
2023/01/25 13:28:45;;;;;;;;;;;3.10;78.20;;;;;;5093340;28;20395;-38
2023/01/25 13:31:30;;;;;;;;;;;3.10;78.30;;;;;;5092817;28;19912;-51
2023/01/25 13:33:58;;;;;;;;;;;3.00;78.40;;;;;;5092888;28;19919;-35
2023/01/25 13:36:36;;;;;;;;;;;3.00;78.40;;;;;;5093100;28;20558;-40
2023/01/25 13:39:21;;;;;;;;;;;3.10;78.60;;;;;;5093052;28;19916;-49
2023/01/25 13:41:57;;;;;;;;;;;3.10;78.40;;;;;;5092450;28;19916;-36
2023/01/25 13:44:27;;;;;;;;;;;3.10;78.40;;;;;;5092921;28;19947;-36
2023/01/25 13:46:59;;;;;;;;;;;3.10;78.50;;;;;;5093079;28;20407;-41
2023/01/25 13:49:29;;;;;;;;;;;3.10;78.50;;;;;;5092551;28;19911;-42
2023/01/25 13:51:55;;;;;;;;;;;3.10;78.60;;;;;;5092571;28;19935;-36
2023/01/25 13:54:21;;;;;;;;;;;3.10;78.60;;;;;;5091075;28;19919;-38
2023/01/25 13:56:46;;;;;;;;;;;3.20;78.60;;;;;;5092448;28;19916;-36
2023/01/25 13:59:25;;;;;;;;;;;3.20;78.60;;;;;;5092515;28;20399;-36
2023/01/25 14:01:51;;;;;;;;;;;3.10;78.40;;;;;;5092428;28;20003;-38
2023/01/25 14:04:17;;;;;;;;;;;3.10;78.50;;;;;;5091010;28;20053;-36
2023/01/25 14:06:43;;;;;;;;;;;3.10;78.50;;;;;;5092833;28;19916;-36
2023/01/25 14:09:18;;;;;;;;;;;3.00;78.40;;;;;;5092212;28;19962;-36
2023/01/25 14:11:53;;;;;;;;;;;2.90;78.50;;;;;;5092504;28;20367;-36
2023/01/25 14:14:23;;;;;;;;;;;2.90;78.70;;;;;;5092478;28;19916;-42
2023/01/25 14:17:07;;;;;;;;;;;3.00;78.70;;;;;;5092082;28;19923;-38
2023/01/25 14:19:34;;;;;;;;;;;3.00;78.80;;;;;;5092023;28;20296;-36
2023/01/25 14:22:19;;;;;;;;;;;3.00;78.70;;;;;;5092354;28;20022;-37
2023/01/25 14:24:44;;;;;;;;;;;2.90;78.40;;;;;;5091983;28;19912;-37
2023/01/25 14:27:13;;;;;;;;;;;2.90;78.60;;;;;;5092081;28;19919;-38
2023/01/25 14:29:40;;;;;;;;;;;2.90;78.80;;;;;;5090318;28;19912;-37
2023/01/25 14:32:05;;;;;;;;;;;2.90;78.60;;;;;;5091865;28;19959;-37
2023/01/25 14:34:31;;;;;;;;;;;2.80;78.60;;;;;;5091978;28;19989;-37
2023/01/25 14:37:16;;;;;;;;;;;2.70;78.80;;;;;;5091959;28;19923;-38
2023/01/25 14:39:41;;;;;;;;;;;2.80;79.50;;;;;;5091585;28;19923;-37
2023/01/25 14:42:07;;;;;;;;;;;2.70;78.90;;;;;;5091738;28;19916;-37